Time;durP1;ratioP1;P1;durP2;ratioP2;P2;SDS_P1;SDS_P2;PMS_P1;PMS_P2;Temp;Humidity;BMP_temperature;BMP_pressure;BME280_temperature;BME280_humidity;BME280_pressure;Samples;Min_cycle;Max_cycle;Signal;HPM_P1;HPM_P2
2022/10/13 00:01:26;;;;;;;0.40;0.40;;;;;;;10.64;76.58;100905.28;5066785;28;20063;-69
2022/10/13 00:03:52;;;;;;;0.40;0.40;;;;;;;10.64;76.42;100909.59;5084895;28;20036;-70
2022/10/13 00:06:20;;;;;;;0.40;0.40;;;;;;;10.52;76.54;100879.34;5084801;28;20054;-69
2022/10/13 00:08:45;;;;;;;1.30;1.20;;;;;;;10.58;76.63;100897.50;5066452;28;20031;-70
2022/10/13 00:11:16;;;;;;;0.60;0.60;;;;;;;10.53;76.52;100894.03;5066421;28;20016;-69
2022/10/13 00:13:43;;;;;;;0.50;0.50;;;;;;;10.43;76.76;100898.34;5066731;28;20035;-70
2022/10/13 00:16:10;;;;;;;0.40;0.40;;;;;;;10.53;76.62;100902.69;5084616;28;20027;-70
2022/10/13 00:18:36;;;;;;;0.50;0.50;;;;;;;10.54;76.55;100898.38;5084449;28;20051;-70
2022/10/13 00:21:06;;;;;;;0.90;0.90;;;;;;;10.53;76.76;100897.50;5084363;28;20029;-69
2022/10/13 00:23:33;;;;;;;0.40;0.40;;;;;;;10.55;76.68;100905.28;5066239;28;20065;-70
2022/10/13 00:26:05;;;;;;;0.40;0.40;;;;;;;10.45;76.65;100883.63;5084397;28;20032;-70
2022/10/13 00:28:30;;;;;;;;;;;;;;;10.59;76.74;100898.38;5084822;28;20031;-70
2022/10/13 00:30:56;;;;;;;0.40;0.40;;;;;;;10.53;76.71;100894.03;5084350;28;19951;-70
2022/10/13 00:33:21;;;;;;;0.40;0.40;;;;;;;10.55;76.71;100894.91;5084443;28;20028;-70
2022/10/13 00:35:48;;;;;;;0.40;0.40;;;;;;;10.62;76.70;100891.44;5066309;28;20047;-70
2022/10/13 00:38:15;;;;;;;0.40;0.40;;;;;;;10.68;76.77;100894.91;5083971;28;20059;-70
2022/10/13 00:40:49;;;;;;;0.40;0.40;;;;;;;10.71;77.07;100884.50;5084196;28;20021;-70
2022/10/13 00:43:21;;;;;;;0.55;0.55;;;;;;;10.76;76.88;100883.66;5084305;28;20029;-70
2022/10/13 00:45:49;;;;;;;0.40;0.40;;;;;;;10.73;76.54;100875.00;5084074;28;20020;-70
2022/10/13 00:48:17;;;;;;;0.40;0.40;;;;;;;10.80;76.60;100866.31;5084152;28;20047;-70
2022/10/13 00:50:43;;;;;;;0.40;0.40;;;;;;;10.94;76.06;100878.41;5084116;28;20163;-70
2022/10/13 00:53:10;;;;;;;0.50;0.50;;;;;;;10.95;76.22;100877.53;5084074;28;20084;-70
2022/10/13 00:55:38;;;;;;;0.40;0.40;;;;;;;10.93;76.22;100880.13;5088007;28;20020;-70
2022/10/13 00:58:06;;;;;;;0.40;0.40;;;;;;;10.93;76.48;100869.75;5088184;28;20031;-70
2022/10/13 01:00:34;;;;;;;0.40;0.40;;;;;;;10.89;76.58;100868.03;5088083;28;20028;-70
2022/10/13 01:03:00;;;;;;;1.45;1.35;;;;;;;10.89;76.82;100868.88;5088374;28;20043;-70
2022/10/13 01:05:26;;;;;;;0.40;0.40;;;;;;;10.87;76.77;100865.44;5088004;28;20025;-70
2022/10/13 01:07:52;;;;;;;2.28;2.17;;;;;;;10.93;76.83;100863.72;5087754;28;20028;-70
2022/10/13 01:10:44;;;;;;;0.40;0.40;;;;;;;10.94;76.87;100860.22;5087893;28;20050;-70
2022/10/13 01:13:24;;;;;;;0.40;0.40;;;;;;;10.87;77.05;100848.97;5088039;28;20027;-70
2022/10/13 01:15:56;;;;;;;0.55;0.55;;;;;;;10.97;77.04;100857.63;5087770;28;20040;-70
2022/10/13 01:18:24;;;;;;;0.40;0.40;;;;;;;10.84;77.07;100846.41;5087748;28;20461;-70
2022/10/13 01:20:52;;;;;;;0.40;0.40;;;;;;;10.91;77.17;100850.69;5087476;28;20059;-71
2022/10/13 01:23:29;;;;;;;0.35;0.35;;;;;;;10.93;77.45;100848.97;5087441;28;20105;-70
2022/10/13 01:26:14;;;;;;;0.40;0.40;;;;;;;10.92;77.50;100847.25;5069557;28;20028;-70
2022/10/13 01:28:51;;;;;;;0.40;0.40;;;;;;;10.88;77.67;100843.78;5087587;28;20016;-70
2022/10/13 01:31:35;;;;;;;0.40;0.40;;;;;;;10.87;78.05;100836.88;5087309;28;20035;-70
2022/10/13 01:34:19;;;;;;;0.70;0.70;;;;;;;10.86;77.98;100834.28;5087482;28;20024;-70
2022/10/13 01:36:53;;;;;;;0.40;0.40;;;;;;;10.81;78.14;100823.91;5087280;28;20021;-70
2022/10/13 01:39:25;;;;;;;0.70;0.70;;;;;;;10.83;78.12;100829.94;5087449;28;20024;-71
2022/10/13 01:41:55;;;;;;;0.40;0.40;;;;;;;10.83;78.36;100822.16;5087249;28;20016;-70
2022/10/13 01:44:35;;;;;;;0.50;0.50;;;;;;;10.78;78.25;100801.38;5087450;28;20017;-69
2022/10/13 01:47:02;;;;;;;0.40;0.40;;;;;;;10.93;78.42;100811.75;5087296;28;20027;-69
2022/10/13 01:49:32;;;;;;;0.40;0.40;;;;;;;10.96;78.76;100811.75;5087283;28;20016;-69
2022/10/13 01:52:01;;;;;;;0.40;0.40;;;;;;;10.95;79.04;100815.19;5086714;28;20058;-69
2022/10/13 01:54:27;;;;;;;0.80;0.80;;;;;;;10.95;78.92;100802.19;5087099;28;20013;-70
2022/10/13 01:56:53;;;;;;;0.95;0.95;;;;;;;10.94;79.26;100803.09;5087152;28;20028;-70
2022/10/13 01:59:19;;;;;;;0.40;0.40;;;;;;;10.92;79.04;100800.50;5068961;28;20031;-70
2022/10/13 02:01:51;;;;;;;0.40;0.40;;;;;;;10.90;79.02;100800.50;5086808;28;20020;-70
2022/10/13 02:04:19;;;;;;;0.50;0.50;;;;;;;10.89;79.15;100803.94;5068967;28;20111;-70
2022/10/13 02:06:52;;;;;;;0.40;0.40;;;;;;;10.89;79.21;100795.31;5085965;28;20061;-70
2022/10/13 02:09:29;;;;;;;0.40;0.40;;;;;;;10.87;79.25;100797.91;5086978;28;20471;-69
2022/10/13 02:12:08;;;;;;;0.40;0.40;;;;;;;10.86;79.38;100783.19;5086253;28;20252;-70
2022/10/13 02:14:38;;;;;;;0.50;0.50;;;;;;;10.86;79.54;100783.19;5068263;28;20086;-69
2022/10/13 02:17:04;;;;;;;0.40;0.40;;;;;;;10.85;79.74;100772.78;5086708;28;20107;-70
2022/10/13 02:19:33;;;;;;;0.40;0.40;;;;;;;10.84;79.67;100776.28;5086470;28;20111;-69
2022/10/13 02:21:59;;;;;;;0.40;0.40;;;;;;;10.81;79.81;100776.28;5068086;28;20084;-70
2022/10/13 02:24:24;;;;;;;0.40;0.40;;;;;;;10.75;80.04;100772.81;5086299;28;20094;-70
2022/10/13 02:26:51;;;;;;;0.40;0.40;;;;;;;10.70;79.88;100777.19;5086360;28;20082;-69
2022/10/13 02:29:17;;;;;;;0.30;0.30;;;;;;;10.68;80.20;100785.84;5068510;28;20084;-70
2022/10/13 02:31:44;;;;;;;0.40;0.40;;;;;;;10.63;80.33;100778.94;5086164;28;20028;-70
2022/10/13 02:34:11;;;;;;;0.88;0.88;;;;;;;10.63;80.34;100776.34;5086362;28;20020;-70
2022/10/13 02:36:37;;;;;;;0.40;0.40;;;;;;;10.66;79.95;100772.88;5085890;28;20099;-71
2022/10/13 02:39:03;;;;;;;0.40;0.40;;;;;;;10.66;80.30;100773.75;5086194;28;20051;-70
2022/10/13 02:41:29;;;;;;;0.95;0.93;;;;;;;10.63;80.28;100763.34;5068136;28;20431;-70
2022/10/13 02:43:54;;;;;;;0.40;0.40;;;;;;;10.68;80.39;100775.44;5086021;28;20055;-70
2022/10/13 02:46:20;;;;;;;0.52;0.52;;;;;;;10.72;80.63;100767.66;5086045;28;20032;-70
2022/10/13 02:48:45;;;;;;;0.50;0.50;;;;;;;10.76;80.49;100760.72;5086193;28;20052;-70
2022/10/13 02:51:10;;;;;;;0.40;0.40;;;;;;;10.83;80.53;100761.56;5085941;28;20109;-70
2022/10/13 02:53:36;;;;;;;0.40;0.40;;;;;;;10.72;81.18;100751.22;5085787;28;20444;-70
2022/10/13 02:56:01;;;;;;;0.40;0.40;;;;;;;10.85;80.94;100754.59;5084173;28;20056;-70
2022/10/13 02:58:27;;;;;;;0.40;0.40;;;;;;;10.78;80.67;100738.22;5085602;28;20025;-70
2022/10/13 03:00:52;;;;;;;0.40;0.40;;;;;;;10.84;81.11;100745.09;5067552;28;20112;-70
2022/10/13 03:03:17;;;;;;;0.47;0.47;;;;;;;10.89;80.92;100753.75;5085704;28;20035;-70
2022/10/13 03:05:44;;;;;;;0.40;0.40;;;;;;;10.91;80.99;100752.84;5084390;28;20029;-69
2022/10/13 03:08:09;;;;;;;0.40;0.40;;;;;;;10.92;80.94;100753.72;5085531;28;20037;-71
2022/10/13 03:10:35;;;;;;;0.40;0.40;;;;;;;10.90;80.64;100740.75;5085317;28;20020;-70
2022/10/13 03:13:00;;;;;;;0.40;0.40;;;;;;;10.91;80.69;100744.19;5085468;28;20142;-70
2022/10/13 03:15:26;;;;;;;0.35;0.35;;;;;;;10.85;80.97;100726.91;5085564;28;20016;-70
2022/10/13 03:17:51;;;;;;;0.40;0.40;;;;;;;10.80;80.51;100717.44;5084309;28;20028;-70
2022/10/13 03:20:16;;;;;;;0.40;0.40;;;;;;;10.96;81.05;100731.22;5067203;28;20085;-69
2022/10/13 03:22:42;;;;;;;0.40;0.40;;;;;;;10.96;80.98;100723.41;5067298;28;20026;-72
2022/10/13 03:25:07;;;;;;;0.40;0.40;;;;;;;10.84;81.21;100713.94;5083838;28;20052;-71
2022/10/13 03:27:33;;;;;;;0.50;0.50;;;;;;;10.82;81.14;100711.34;5067237;28;20025;-69
2022/10/13 03:29:58;;;;;;;0.88;0.88;;;;;;;10.96;81.37;100726.03;5084974;28;20043;-69
2022/10/13 03:32:24;;;;;;;0.40;0.40;;;;;;;10.94;81.25;100719.97;5084999;28;20021;-70
2022/10/13 03:34:50;;;;;;;0.50;0.50;;;;;;;10.88;81.33;100716.50;5083672;28;20027;-70
2022/10/13 03:37:16;;;;;;;0.40;0.40;;;;;;;10.93;81.10;100715.63;5084899;28;20437;-70
2022/10/13 03:39:49;;;;;;;0.40;0.40;;;;;;;10.92;81.36;100706.97;5142740;27;20379;-70
2022/10/13 03:42:15;;;;;;;0.40;0.40;;;;;;;10.97;81.28;100713.03;5142723;28;20102;-69
2022/10/13 03:44:40;;;;;;;0.55;0.55;;;;;;;10.92;81.43;100696.59;5142740;28;20041;-68
2022/10/13 03:47:05;;;;;;;0.40;0.40;;;;;;;10.94;81.54;100710.44;5124301;28;20027;-68
2022/10/13 03:49:31;;;;;;;0.40;0.40;;;;;;;10.89;81.73;100701.78;5142926;28;20016;-68
2022/10/13 03:51:56;;;;;;;0.40;0.40;;;;;;;10.86;81.84;100697.47;5142574;28;20038;-68
2022/10/13 03:54:21;;;;;;;0.40;0.40;;;;;;;10.81;81.80;100694.03;5142357;28;20023;-68
2022/10/13 03:56:47;;;;;;;0.40;0.40;;;;;;;10.78;81.77;100694.06;5124055;28;20045;-69
2022/10/13 03:59:13;;;;;;;0.40;0.40;;;;;;;10.72;81.86;100681.09;5142571;28;20031;-68
2022/10/13 04:01:39;;;;;;;0.40;0.40;;;;;;;10.69;82.16;100688.91;5142346;28;20023;-69
2022/10/13 04:04:04;;;;;;;0.50;0.50;;;;;;;10.64;82.06;100676.78;5142400;28;20057;-69
2022/10/13 04:06:30;;;;;;;0.40;0.40;;;;;;;10.66;82.00;100680.25;5142340;28;20024;-68
2022/10/13 04:08:56;;;;;;;0.40;0.40;;;;;;;10.65;82.27;100681.09;5142471;28;20015;-68
2022/10/13 04:11:22;;;;;;;0.40;0.40;;;;;;;10.69;82.43;100673.34;5142277;28;20027;-68
2022/10/13 04:13:47;;;;;;;0.40;0.40;;;;;;;10.63;82.61;100675.09;5142427;28;20051;-69
2022/10/13 04:16:14;;;;;;;0.47;0.47;;;;;;;10.63;82.81;100674.22;5142082;28;20025;-69
2022/10/13 04:18:39;;;;;;;0.40;0.40;;;;;;;10.53;82.75;100660.41;5142358;28;20015;-68
2022/10/13 04:21:10;;;;;;;1.05;1.05;;;;;;;10.53;82.84;100665.59;5142178;28;20024;-68
2022/10/13 04:23:35;;;;;;;0.60;0.60;;;;;;;10.52;83.12;100653.50;5141889;28;20042;-70
2022/10/13 04:26:01;;;;;;;0.60;0.60;;;;;;;10.49;83.32;100650.91;5142100;28;20019;-70
2022/10/13 04:28:26;;;;;;;0.40;0.40;;;;;;;10.52;83.10;100659.56;5142132;28;20026;-70
2022/10/13 04:30:52;;;;;;;0.40;0.40;;;;;;;10.49;83.17;100650.91;5141887;28;20107;-69
2022/10/13 04:33:17;;;;;;;0.60;0.60;;;;;;;10.46;83.46;100651.78;5141981;28;20023;-71
2022/10/13 04:35:42;;;;;;;0.40;0.40;;;;;;;10.48;83.31;100654.38;5141862;28;20030;-71
2022/10/13 04:38:08;;;;;;;0.40;0.40;;;;;;;10.48;83.48;100654.38;5122911;28;20499;-71
2022/10/13 04:40:34;;;;;;;0.40;0.40;;;;;;;10.47;83.47;100650.03;5141586;28;20456;-70
2022/10/13 04:43:00;;;;;;;0.40;0.40;;;;;;;10.46;83.27;100653.47;5141808;28;20136;-70
2022/10/13 04:45:25;;;;;;;0.40;0.40;;;;;;;10.44;83.85;100647.44;5141716;28;20529;-70
2022/10/13 04:47:51;;;;;;;0.40;0.40;;;;;;;10.42;84.02;100639.66;5141727;28;20019;-71
2022/10/13 04:50:16;;;;;;;0.45;0.45;;;;;;;10.46;83.92;100641.41;5133165;28;20108;-67
2022/10/13 04:52:42;;;;;;;0.40;0.40;;;;;;;10.44;84.19;100644.84;5127686;28;20026;-67
2022/10/13 04:55:07;;;;;;;0.40;0.40;;;;;;;10.36;84.61;100643.16;5127940;28;20045;-70
2022/10/13 04:57:33;;;;;;;0.40;0.40;;;;;;;10.35;84.54;100630.19;5127667;28;20016;-71
2022/10/13 04:59:58;;;;;;;0.40;0.40;;;;;;;10.27;84.82;100633.63;5143767;27;20024;-71
2022/10/13 05:02:24;;;;;;;0.40;0.40;;;;;;;10.26;85.14;100629.34;5127510;28;20077;-72
2022/10/13 05:04:49;;;;;;;0.50;0.50;;;;;;;10.31;85.34;100637.09;5127761;28;20028;-71
2022/10/13 05:07:18;;;;;;;0.50;0.50;;;;;;;10.26;85.49;100642.31;5127266;28;20046;-71
2022/10/13 05:09:43;;;;;;;0.40;0.40;;;;;;;10.26;85.33;100644.91;5127570;28;20019;-71
2022/10/13 05:12:08;;;;;;;0.40;0.40;;;;;;;10.24;85.26;100631.06;5127445;28;20084;-71
2022/10/13 05:14:34;;;;;;;9.50;4.80;;;;;;;10.28;85.49;100637.97;5127528;28;20026;-70
2022/10/13 05:17:00;;;;;;;0.40;0.40;;;;;;;10.36;85.29;100647.47;5127566;28;20564;-71
2022/10/13 05:19:26;;;;;;;0.80;0.80;;;;;;;10.35;85.18;100631.00;5127408;28;20084;-70
2022/10/13 05:21:51;;;;;;;0.73;0.73;;;;;;;10.44;84.84;100637.91;5127045;28;20043;-71
2022/10/13 05:24:19;;;;;;;0.40;0.40;;;;;;;10.48;85.26;100641.41;5127216;28;20555;-71
2022/10/13 05:26:44;;;;;;;0.55;0.55;;;;;;;10.51;85.23;100636.19;5108929;28;20034;-71
2022/10/13 05:29:10;;;;;;;0.40;0.40;;;;;;;10.51;85.01;100631.84;5127222;28;20106;-70
2022/10/13 05:31:35;;;;;;;0.40;0.40;;;;;;;10.54;85.44;100623.19;5126834;28;20024;-72
2022/10/13 05:34:01;;;;;;;0.40;0.40;;;;;;;10.52;85.06;100630.13;5108611;28;20157;-70
2022/10/13 05:36:29;;;;;;;0.40;0.40;;;;;;;10.56;84.98;100631.81;5127037;28;20423;-71
2022/10/13 05:38:58;;;;;;;0.40;0.40;;;;;;;10.57;85.04;100627.50;5126583;28;20036;-71
2022/10/13 05:41:25;;;;;;;0.50;0.50;;;;;;;10.60;84.85;100630.09;5126971;28;20028;-71
2022/10/13 05:43:56;;;;;;;0.40;0.40;;;;;;;10.51;85.11;100613.69;5126937;28;20062;-71
2022/10/13 05:46:21;;;;;;;0.40;0.40;;;;;;;10.58;85.42;100618.84;5127309;28;20020;-71
2022/10/13 05:48:47;;;;;;;0.40;0.40;;;;;;;10.56;85.24;100611.06;5127101;28;20019;-71
2022/10/13 05:51:23;;;;;;;0.40;0.40;;;;;;;10.57;85.24;100609.34;5126870;28;20079;-70
2022/10/13 05:54:22;;;;;;;0.40;0.40;;;;;;;10.53;85.34;100605.88;5126552;28;20019;-70
2022/10/13 05:56:54;;;;;;;0.50;0.50;;;;;;;10.46;85.68;100584.31;5115874;28;20085;-70
2022/10/13 05:59:20;;;;;;;;;;;;;;;10.59;85.83;100602.41;5127115;28;20036;-70
2022/10/13 06:01:46;;;;;;;0.40;0.40;;;;;;;10.52;85.53;100598.97;5125655;28;19950;-70
2022/10/13 06:04:36;;;;;;;2.78;2.58;;;;;;;10.52;85.76;100586.00;5126548;28;20382;-69
2022/10/13 06:07:02;;;;;;;2.58;1.65;;;;;;;10.49;85.96;100593.81;5126317;28;20031;-69
2022/10/13 06:09:34;;;;;;;0.50;0.50;;;;;;;10.47;86.29;100582.56;5126796;28;20016;-69
2022/10/13 06:12:00;;;;;;;0.40;0.40;;;;;;;10.51;86.28;100589.47;5126313;28;20599;-69
2022/10/13 06:14:25;;;;;;;0.50;0.50;;;;;;;10.52;86.31;100584.28;5126431;28;20027;-70
2022/10/13 06:16:51;;;;;;;0.40;0.40;;;;;;;10.48;86.61;100579.94;5126581;28;20278;-70
2022/10/13 06:19:16;;;;;;;0.50;0.50;;;;;;;10.49;86.60;100580.81;5107939;28;20063;-69
2022/10/13 06:21:41;;;;;;;0.40;0.40;;;;;;;10.50;86.58;100575.63;5125723;28;20015;-69
2022/10/13 06:24:07;;;;;;;1.98;1.48;;;;;;;10.56;86.24;100577.31;5125792;28;20035;-70
2022/10/13 06:26:32;;;;;;;0.50;0.50;;;;;;;10.52;86.33;100580.81;5125971;28;20028;-70
2022/10/13 06:28:57;;;;;;;2.42;2.25;;;;;;;10.50;86.50;100590.31;5125929;28;20016;-70
2022/10/13 06:31:23;;;;;;;0.70;0.70;;;;;;;10.52;86.76;100586.88;5125707;28;20038;-70
2022/10/13 06:33:48;;;;;;;0.40;0.40;;;;;;;10.53;86.54;100579.91;5125950;28;20032;-70
2022/10/13 06:36:14;;;;;;;0.38;0.38;;;;;;;10.54;86.57;100576.47;5125893;28;20030;-70
2022/10/13 06:38:39;;;;;;;2.58;1.88;;;;;;;10.59;86.37;100569.50;5125400;28;20063;-69
2022/10/13 06:41:05;;;;;;;0.40;0.40;;;;;;;10.56;86.36;100574.72;5125726;28;20045;-71
2022/10/13 06:43:30;;;;;;;0.45;0.45;;;;;;;10.53;86.50;100569.53;5125982;28;20035;-70
2022/10/13 06:45:58;;;;;;;0.40;0.40;;;;;;;10.57;86.19;100570.41;5125441;28;20047;-70
2022/10/13 06:48:24;;;;;;;0.40;0.40;;;;;;;10.60;86.00;100581.63;5125820;28;20015;-70
2022/10/13 06:50:49;;;;;;;0.40;0.40;;;;;;;10.51;86.01;100569.53;5125535;28;20390;-70
2022/10/13 06:53:14;;;;;;;0.40;0.40;;;;;;;10.58;85.93;100567.78;5125214;28;20051;-70
2022/10/13 06:55:42;;;;;;;0.40;0.40;;;;;;;10.60;86.37;100571.25;5125528;28;20102;-71
2022/10/13 06:58:08;;;;;;;0.40;0.40;;;;;;;10.65;85.96;100571.22;5125451;28;20020;-71
2022/10/13 07:00:33;;;;;;;0.50;0.50;;;;;;;10.75;85.41;100572.88;5125273;28;20079;-68
2022/10/13 07:02:58;;;;;;;0.40;0.40;;;;;;;10.66;85.57;100572.94;5125253;28;20027;-70
2022/10/13 07:05:24;;;;;;;0.50;0.50;;;;;;;10.71;85.57;100572.91;5125480;28;20020;-70
2022/10/13 07:07:55;;;;;;;0.40;0.40;;;;;;;10.73;85.56;100576.34;5106701;28;20019;-70
2022/10/13 07:10:21;;;;;;;0.50;0.50;;;;;;;10.76;85.33;100574.63;5106875;28;20043;-69
2022/10/13 07:12:46;;;;;;;0.40;0.40;;;;;;;10.73;85.14;100573.75;5124798;28;20282;-71
2022/10/13 07:15:12;;;;;;;0.43;0.43;;;;;;;10.75;85.58;100577.22;5125328;28;20499;-70
2022/10/13 07:17:38;;;;;;;0.50;0.50;;;;;;;10.80;85.24;100574.59;5106844;28;20027;-70
2022/10/13 07:20:04;;;;;;;0.40;0.40;;;;;;;10.76;85.09;100572.00;5124941;28;20035;-71
2022/10/13 07:22:30;;;;;;;0.80;0.80;;;;;;;10.84;84.64;100566.75;5124954;28;20066;-70
2022/10/13 07:24:55;;;;;;;0.40;0.40;;;;;;;10.77;84.50;100570.25;5124933;28;20028;-70
2022/10/13 07:27:21;;;;;;;0.50;0.50;;;;;;;10.80;84.79;100570.25;5106917;28;20126;-71
2022/10/13 07:29:47;;;;;;;0.40;0.40;;;;;;;10.79;84.56;100571.13;5125287;28;20019;-71
2022/10/13 07:32:12;;;;;;;0.85;0.85;;;;;;;10.76;84.88;100566.81;5124961;28;20388;-71
2022/10/13 07:34:37;;;;;;;0.40;0.40;;;;;;;10.86;84.48;100570.19;5125025;28;20027;-70
2022/10/13 07:37:03;;;;;;;0.40;0.40;;;;;;;10.88;84.38;100562.38;5124552;28;20023;-70
2022/10/13 07:39:28;;;;;;;0.40;0.40;;;;;;;10.76;84.85;100561.63;5124779;28;20036;-71
2022/10/13 07:41:54;;;;;;;1.30;1.30;;;;;;;10.82;84.34;100559.84;5124877;28;20093;-70
2022/10/13 07:44:19;;;;;;;0.50;0.50;;;;;;;10.87;84.64;100563.28;5125070;28;20023;-70
2022/10/13 07:46:45;;;;;;;0.40;0.40;;;;;;;10.83;84.85;100567.63;5124844;28;20110;-70
2022/10/13 07:49:10;;;;;;;0.40;0.40;;;;;;;10.87;84.61;100569.34;5124968;28;20027;-70
2022/10/13 07:51:35;;;;;;;0.60;0.60;;;;;;;10.93;84.59;100554.59;5124961;28;20016;-71
2022/10/13 07:54:00;;;;;;;0.52;0.52;;;;;;;10.94;84.39;100551.13;5124683;28;20467;-69
2022/10/13 07:56:26;;;;;;;0.40;0.40;;;;;;;10.96;84.68;100552.81;5124772;28;20031;-70
2022/10/13 07:58:51;;;;;;;0.40;0.40;;;;;;;10.96;84.58;100547.63;5124705;28;20483;-69
2022/10/13 08:01:17;;;;;;;0.50;0.50;;;;;;;10.99;84.88;100546.75;5124588;28;20026;-70
2022/10/13 08:03:43;;;;;;;0.40;0.40;;;;;;;11.02;84.86;100551.91;5127180;28;20037;-70
2022/10/13 08:06:09;;;;;;;0.50;0.50;;;;;;;11.06;84.75;100545.81;5131508;28;20067;-69
2022/10/13 08:08:35;;;;;;;1.58;1.42;;;;;;;11.09;84.72;100550.97;5125928;28;20073;-71
2022/10/13 08:11:06;;;;;;;0.40;0.40;;;;;;;11.13;85.00;100544.88;5106277;28;20023;-71
2022/10/13 08:13:31;;;;;;;0.40;0.40;;;;;;;11.23;84.31;100540.47;5124907;28;20020;-70
2022/10/13 08:16:00;;;;;;;0.50;0.50;;;;;;;11.38;84.24;100542.06;5141079;28;20020;-71
2022/10/13 08:18:25;;;;;;;0.40;0.40;;;;;;;11.39;84.54;100543.78;5124885;28;20028;-68
2022/10/13 08:20:51;;;;;;;0.40;0.40;;;;;;;11.59;83.27;100532.34;5124829;28;20087;-69
2022/10/13 08:23:16;;;;;;;0.50;0.50;;;;;;;11.58;83.73;100528.00;5124465;28;20031;-70
2022/10/13 08:25:43;;;;;;;0.40;0.40;;;;;;;11.63;84.03;100534.00;5126962;28;20016;-73
2022/10/13 08:28:21;;;;;;;0.40;0.40;;;;;;;11.85;83.33;100536.34;5128435;28;20016;-70
2022/10/13 08:30:47;;;;;;;0.60;0.60;;;;;;;11.92;83.25;100534.56;5128362;28;20507;-70
2022/10/13 08:33:12;;;;;;;0.40;0.40;;;;;;;12.05;82.52;100527.47;5128404;28;20026;-71
2022/10/13 08:35:38;;;;;;;0.40;0.40;;;;;;;12.14;81.43;100529.97;5128472;28;20034;-70
2022/10/13 08:38:04;;;;;;;0.40;0.40;;;;;;;12.08;81.37;100523.97;5127856;28;20047;-72
2022/10/13 08:40:29;;;;;;;0.40;0.40;;;;;;;12.09;82.03;100520.53;5110253;28;20487;-71
2022/10/13 08:42:54;;;;;;;0.40;0.40;;;;;;;12.14;81.35;100522.16;5128258;28;20030;-71
2022/10/13 08:45:29;;;;;;;0.40;0.40;;;;;;;12.16;81.24;100521.31;5129668;28;20028;-71
2022/10/13 08:48:01;;;;;;;0.35;0.35;;;;;;;12.21;80.78;100524.69;5129269;28;20071;-70
2022/10/13 08:50:28;;;;;;;;;;;;;;;12.25;80.65;100531.59;5134729;28;20060;-71
2022/10/13 08:52:58;;;;;;;0.40;0.40;;;;;;;12.25;80.73;100529.81;5140424;28;19903;-71
2022/10/13 08:55:34;;;;;;;0.40;0.40;;;;;;;12.33;81.14;100529.72;5140291;28;20026;-71
2022/10/13 08:58:04;;;;;;;0.40;0.40;;;;;;;12.30;80.70;100518.50;5133973;28;20027;-72
2022/10/13 09:00:30;;;;;;;0.40;0.40;;;;;;;12.34;80.48;100526.25;5128134;28;20022;-71
2022/10/13 09:03:21;;;;;;;0.82;0.55;;;;;;;12.36;80.87;100519.25;5109199;28;20032;-71
2022/10/13 09:06:13;;;;;;;0.50;0.50;;;;;;;12.38;79.69;100522.72;5127524;28;20063;-72
2022/10/13 09:08:44;;;;;;;0.40;0.40;;;;;;;12.42;79.67;100526.16;5127661;28;20020;-72
2022/10/13 09:11:11;;;;;;;4.50;1.70;;;;;;;12.37;79.87;100517.53;5127680;28;20043;-71
2022/10/13 09:13:37;;;;;;;0.55;0.55;;;;;;;12.45;79.56;100518.28;5127542;28;20735;-71
2022/10/13 09:16:02;;;;;;;0.40;0.40;;;;;;;12.44;79.01;100519.19;5127676;28;20047;-71
2022/10/13 09:18:30;;;;;;;0.50;0.50;;;;;;;12.40;79.55;100520.09;5127497;28;20022;-73
2022/10/13 09:21:29;;;;;;;0.40;0.40;;;;;;;12.47;79.23;100526.06;5108950;28;20363;-71
2022/10/13 09:24:05;;;;;;;1.55;1.55;;;;;;;12.46;79.80;100524.38;5064877;28;20027;-72
2022/10/13 09:26:36;;;;;;;0.40;0.40;;;;;;;12.63;79.33;100519.78;5127558;28;20483;-73
2022/10/13 09:29:14;;;;;;;0.40;0.40;;;;;;;12.83;79.05;100515.09;5127469;28;20019;-72
2022/10/13 09:31:40;;;;;;;0.50;0.50;;;;;;;12.98;77.79;100508.78;5109150;28;20521;-71
2022/10/13 09:34:22;;;;;;;0.95;0.90;;;;;;;13.01;77.03;100507.00;5127727;28;20036;-72
2022/10/13 09:36:54;;;;;;;0.38;0.38;;;;;;;13.11;77.33;100509.44;5127105;28;20111;-72
2022/10/13 09:39:19;;;;;;;0.35;0.35;;;;;;;13.22;77.15;100507.53;5127164;28;20055;-72
2022/10/13 09:41:45;;;;;;;0.40;0.40;;;;;;;13.22;75.08;100504.91;5127287;28;20023;-72
2022/10/13 09:44:16;;;;;;;1.48;1.48;;;;;;;13.19;74.29;100488.47;5127326;28;20027;-72
2022/10/13 09:46:51;;;;;;;0.40;0.40;;;;;;;13.17;73.04;100503.25;5126858;28;20028;-69
2022/10/13 09:49:29;;;;;;;0.40;0.40;;;;;;;13.24;73.59;100507.50;5126903;28;20039;-71
2022/10/13 09:52:00;;;;;;;0.57;0.57;;;;;;;13.44;73.28;100503.63;5126728;28;20019;-71
2022/10/13 09:54:27;;;;;;;0.50;0.50;;;;;;;13.71;73.60;100504.91;5126923;28;20034;-72
2022/10/13 09:57:00;;;;;;;0.32;0.32;;;;;;;13.91;72.34;100497.56;5126527;28;20036;-71
2022/10/13 09:59:52;;;;;;;0.38;0.38;;;;;;;13.93;71.10;100501.84;5126729;28;20422;-70
2022/10/13 10:02:36;;;;;;;1.45;1.35;;;;;;;13.64;69.94;100500.72;5123056;28;20047;-72
2022/10/13 10:05:45;;;;;;;0.40;0.40;;;;;;;13.55;70.95;100503.47;5126487;28;20019;-72
2022/10/13 10:08:45;;;;;;;0.65;0.65;;;;;;;13.56;71.04;100498.22;5107194;28;20476;-72
2022/10/13 10:11:16;;;;;;;0.40;0.40;;;;;;;13.47;70.54;100498.38;5092488;28;20050;-71
2022/10/13 10:13:41;;;;;;;0.30;0.30;;;;;;;13.36;70.80;100502.06;5126109;28;20041;-72
2022/10/13 10:16:23;;;;;;;0.40;0.40;;;;;;;13.25;71.46;100507.47;5107871;28;20020;-71
2022/10/13 10:19:01;;;;;;;0.50;0.50;;;;;;;13.17;71.82;100478.06;5126303;28;20016;-70
2022/10/13 10:21:42;;;;;;;0.32;0.32;;;;;;;13.36;71.89;100498.56;5126339;28;20043;-71
2022/10/13 10:24:21;;;;;;;0.32;0.32;;;;;;;13.27;71.29;100487.41;5126201;28;20083;-69
2022/10/13 10:26:57;;;;;;;0.40;0.40;;;;;;;13.22;71.21;100504.03;5141926;27;20479;-70
2022/10/13 10:29:47;;;;;;;0.40;0.40;;;;;;;13.21;71.63;100497.13;5126175;28;20035;-70
2022/10/13 10:32:26;;;;;;;0.35;0.35;;;;;;;13.25;71.73;100504.00;5125366;28;20032;-70
2022/10/13 10:35:09;;;;;;;0.40;0.40;;;;;;;13.21;71.72;100504.94;5125963;28;20035;-71
2022/10/13 10:37:55;;;;;;;0.47;0.47;;;;;;;13.23;71.67;100493.59;5125515;28;20098;-71
2022/10/13 10:40:58;;;;;;;0.55;0.55;;;;;;;13.36;71.77;100491.63;5126091;28;20048;-72
2022/10/13 10:43:30;;;;;;;0.30;0.30;;;;;;;13.49;71.94;100486.16;5042609;28;20072;-73
2022/10/13 10:45:58;;;;;;;0.40;0.40;;;;;;;13.64;70.86;100482.44;5042576;28;20049;-73
2022/10/13 10:48:29;;;;;;;0.40;0.40;;;;;;;14.19;71.03;100492.59;5042188;28;20036;-72
2022/10/13 10:50:56;;;;;;;0.85;0.85;;;;;;;15.10;69.43;100478.28;5042453;28;20033;-72
2022/10/13 10:53:38;;;;;;;0.40;0.40;;;;;;;15.44;67.05;100473.03;5025707;28;20096;-71
2022/10/13 10:56:18;;;;;;;;;;;;;;;15.28;66.32;100472.59;5043190;28;20033;-70
2022/10/13 10:58:52;;;;;;;0.30;0.30;;;;;;;14.95;67.42;100470.84;5042139;28;19916;-71
2022/10/13 11:01:30;;;;;;;0.40;0.40;;;;;;;14.80;67.33;100470.31;5042191;28;20033;-70
2022/10/13 11:04:14;;;;;;;0.30;0.30;;;;;;;14.60;66.03;100455.94;5042381;28;20041;-70
2022/10/13 11:06:39;;;;;;;0.40;0.40;;;;;;;14.37;66.23;100467.81;5042413;28;20033;-71
2022/10/13 11:09:05;;;;;;;0.30;0.30;;;;;;;14.23;66.20;100455.06;5042287;28;20115;-71
2022/10/13 11:11:41;;;;;;;0.50;0.50;;;;;;;14.20;66.88;100462.13;5042105;28;20032;-70
2022/10/13 11:14:06;;;;;;;0.93;0.93;;;;;;;14.05;66.26;100450.25;5042179;28;20344;-71
2022/10/13 11:16:40;;;;;;;0.50;0.50;;;;;;;13.83;66.93;100453.34;5055916;28;20050;-71
2022/10/13 11:19:40;;;;;;;0.40;0.40;;;;;;;13.70;67.81;100456.22;5125244;28;20022;-71
2022/10/13 11:22:06;;;;;;;0.40;0.40;;;;;;;13.71;68.16;100452.72;5102823;28;20036;-71
2022/10/13 11:24:40;;;;;;;0.40;0.40;;;;;;;13.73;67.74;100450.06;5124863;28;20143;-71
2022/10/13 11:27:11;;;;;;;1.75;1.65;;;;;;;13.70;67.80;100450.13;5125097;28;20023;-71
2022/10/13 11:29:42;;;;;;;1.07;1.07;;;;;;;13.67;68.14;100448.47;5125087;28;20026;-70
2022/10/13 11:35:04;;;;;;;1.27;1.25;;;;;;;13.65;68.10;100454.59;5125103;28;20032;-71
2022/10/13 11:37:39;;;;;;;0.50;0.50;;;;;;;13.67;68.57;100448.47;5124862;28;20027;-70
2022/10/13 11:40:27;;;;;;;0.30;0.30;;;;;;;13.71;68.21;100452.72;5124950;28;20808;-71